sensor_id;sensor_type;location;lat;lon;timestamp;temperature;humidity
64843;DHT22;51310;52.198;5.422;2023-02-19T00:01:27;9.10;99.90
64843;DHT22;51310;52.198;5.422;2023-02-19T00:04:00;9.10;99.90
64843;DHT22;51310;52.198;5.422;2023-02-19T00:06:37;9.00;99.90
64843;DHT22;51310;52.198;5.422;2023-02-19T00:09:03;9.00;99.90
64843;DHT22;51310;52.198;5.422;2023-02-19T00:11:31;9.00;99.90
64843;DHT22;51310;52.198;5.422;2023-02-19T00:13:59;9.00;99.90
64843;DHT22;51310;52.198;5.422;2023-02-19T00:16:34;9.00;99.90
64843;DHT22;51310;52.198;5.422;2023-02-19T00:19:05;9.00;99.90
64843;DHT22;51310;52.198;5.422;2023-02-19T00:21:32;9.00;99.90
64843;DHT22;51310;52.198;5.422;2023-02-19T00:24:00;9.00;99.90
64843;DHT22;51310;52.198;5.422;2023-02-19T00:26:28;9.00;99.90
64843;DHT22;51310;52.198;5.422;2023-02-19T00:28:55;9.00;99.90
64843;DHT22;51310;52.198;5.422;2023-02-19T00:31:30;9.00;99.90
64843;DHT22;51310;52.198;5.422;2023-02-19T00:33:59;9.00;99.90
64843;DHT22;51310;52.198;5.422;2023-02-19T00:36:27;9.00;99.90
64843;DHT22;51310;52.198;5.422;2023-02-19T00:38:55;9.00;99.90
64843;DHT22;51310;52.198;5.422;2023-02-19T00:41:21;9.00;99.90
64843;DHT22;51310;52.198;5.422;2023-02-19T00:43:59;9.00;99.90
64843;DHT22;51310;52.198;5.422;2023-02-19T00:48:59;9.00;99.90
64843;DHT22;51310;52.198;5.422;2023-02-19T00:51:27;9.00;99.90
64843;DHT22;51310;52.198;5.422;2023-02-19T00:53:55;9.00;99.90
64843;DHT22;51310;52.198;5.422;2023-02-19T00:56:21;9.00;99.90
64843;DHT22;51310;52.198;5.422;2023-02-19T00:58:47;9.00;99.90
64843;DHT22;51310;52.198;5.422;2023-02-19T01:01:14;8.90;99.90
64843;DHT22;51310;52.198;5.422;2023-02-19T01:03:41;8.90;99.90
64843;DHT22;51310;52.198;5.422;2023-02-19T01:06:09;8.90;99.90
64843;DHT22;51310;52.198;5.422;2023-02-19T01:08:37;8.90;99.90
64843;DHT22;51310;52.198;5.422;2023-02-19T01:11:05;8.90;99.90
64843;DHT22;51310;52.198;5.422;2023-02-19T01:13:32;9.00;99.90
64843;DHT22;51310;52.198;5.422;2023-02-19T01:16:18;9.00;99.90
64843;DHT22;51310;52.198;5.422;2023-02-19T01:18:46;8.90;99.90
64843;DHT22;51310;52.198;5.422;2023-02-19T01:21:18;9.00;99.90
64843;DHT22;51310;52.198;5.422;2023-02-19T01:23:47;9.00;99.90
64843;DHT22;51310;52.198;5.422;2023-02-19T01:26:16;8.90;99.90
64843;DHT22;51310;52.198;5.422;2023-02-19T01:28:44;8.90;99.90
64843;DHT22;51310;52.198;5.422;2023-02-19T01:31:13;8.90;99.90
64843;DHT22;51310;52.198;5.422;2023-02-19T01:33:44;8.90;99.90
64843;DHT22;51310;52.198;5.422;2023-02-19T01:36:11;8.90;99.90
64843;DHT22;51310;52.198;5.422;2023-02-19T01:38:37;8.90;99.90
64843;DHT22;51310;52.198;5.422;2023-02-19T01:41:05;8.90;99.90
64843;DHT22;51310;52.198;5.422;2023-02-19T01:43:34;8.90;99.90
64843;DHT22;51310;52.198;5.422;2023-02-19T01:46:19;8.80;99.90
64843;DHT22;51310;52.198;5.422;2023-02-19T01:48:45;8.80;99.90
64843;DHT22;51310;52.198;5.422;2023-02-19T01:51:17;8.80;99.90
64843;DHT22;51310;52.198;5.422;2023-02-19T01:53:48;8.80;99.90
64843;DHT22;51310;52.198;5.422;2023-02-19T01:56:20;8.80;99.90
64843;DHT22;51310;52.198;5.422;2023-02-19T01:58:47;8.70;99.90
64843;DHT22;51310;52.198;5.422;2023-02-19T02:01:13;8.60;99.90
64843;DHT22;51310;52.198;5.422;2023-02-19T02:03:40;8.60;99.90
64843;DHT22;51310;52.198;5.422;2023-02-19T02:06:28;8.60;99.90
64843;DHT22;51310;52.198;5.422;2023-02-19T02:08:56;8.60;99.90
64843;DHT22;51310;52.198;5.422;2023-02-19T02:11:48;8.60;99.90
64843;DHT22;51310;52.198;5.422;2023-02-19T02:14:23;8.60;99.90
64843;DHT22;51310;52.198;5.422;2023-02-19T02:31:38;8.60;99.90
64843;DHT22;51310;52.198;5.422;2023-02-19T02:34:27;8.60;99.90
64843;DHT22;51310;52.198;5.422;2023-02-19T02:37:11;8.60;99.90
64843;DHT22;51310;52.198;5.422;2023-02-19T02:39:40;8.60;99.90
64843;DHT22;51310;52.198;5.422;2023-02-19T02:42:08;8.60;99.90
64843;DHT22;51310;52.198;5.422;2023-02-19T02:44:56;8.60;99.90
64843;DHT22;51310;52.198;5.422;2023-02-19T02:51:03;8.60;99.90
64843;DHT22;51310;52.198;5.422;2023-02-19T02:53:48;8.60;99.90
64843;DHT22;51310;52.198;5.422;2023-02-19T02:57:07;8.60;99.90
64843;DHT22;51310;52.198;5.422;2023-02-19T02:59:39;8.60;99.90
64843;DHT22;51310;52.198;5.422;2023-02-19T03:02:14;8.60;99.90
64843;DHT22;51310;52.198;5.422;2023-02-19T03:13:19;8.60;99.90
64843;DHT22;51310;52.198;5.422;2023-02-19T03:16:15;8.60;99.90
64843;DHT22;51310;52.198;5.422;2023-02-19T03:19:04;8.60;99.90
64843;DHT22;51310;52.198;5.422;2023-02-19T03:21:46;8.60;99.90
64843;DHT22;51310;52.198;5.422;2023-02-19T03:24:18;8.60;99.90
64843;DHT22;51310;52.198;5.422;2023-02-19T03:27:06;8.60;99.90
64843;DHT22;51310;52.198;5.422;2023-02-19T03:29:36;8.60;99.90
64843;DHT22;51310;52.198;5.422;2023-02-19T03:32:10;8.60;99.90
64843;DHT22;51310;52.198;5.422;2023-02-19T03:34:53;8.60;99.90
64843;DHT22;51310;52.198;5.422;2023-02-19T03:37:44;8.60;99.90
64843;DHT22;51310;52.198;5.422;2023-02-19T03:40:15;8.60;99.90
64843;DHT22;51310;52.198;5.422;2023-02-19T03:45:35;8.60;99.90
64843;DHT22;51310;52.198;5.422;2023-02-19T03:48:25;8.60;99.90
64843;DHT22;51310;52.198;5.422;2023-02-19T03:53:54;8.60;99.90
64843;DHT22;51310;52.198;5.422;2023-02-19T03:59:36;8.60;99.90
64843;DHT22;51310;52.198;5.422;2023-02-19T04:02:28;8.60;99.90
64843;DHT22;51310;52.198;5.422;2023-02-19T04:05:10;8.50;99.90
64843;DHT22;51310;52.198;5.422;2023-02-19T04:07:43;8.50;99.90
64843;DHT22;51310;52.198;5.422;2023-02-19T04:10:12;8.50;99.90
64843;DHT22;51310;52.198;5.422;2023-02-19T04:12:41;8.50;99.90
64843;DHT22;51310;52.198;5.422;2023-02-19T04:15:14;8.50;99.90
64843;DHT22;51310;52.198;5.422;2023-02-19T04:18:15;8.50;99.90
64843;DHT22;51310;52.198;5.422;2023-02-19T04:20:45;8.40;99.90
64843;DHT22;51310;52.198;5.422;2023-02-19T04:23:15;8.40;99.90
64843;DHT22;51310;52.198;5.422;2023-02-19T04:25:45;8.40;99.90
64843;DHT22;51310;52.198;5.422;2023-02-19T04:28:16;8.40;99.90
64843;DHT22;51310;52.198;5.422;2023-02-19T04:30:43;8.40;99.90
64843;DHT22;51310;52.198;5.422;2023-02-19T04:33:09;8.40;99.90
64843;DHT22;51310;52.198;5.422;2023-02-19T04:35:35;8.40;99.90
64843;DHT22;51310;52.198;5.422;2023-02-19T04:38:00;8.30;99.90
64843;DHT22;51310;52.198;5.422;2023-02-19T04:40:26;8.30;99.90
64843;DHT22;51310;52.198;5.422;2023-02-19T04:42:52;8.30;99.90
64843;DHT22;51310;52.198;5.422;2023-02-19T04:45:17;8.30;99.90
64843;DHT22;51310;52.198;5.422;2023-02-19T04:47:43;8.30;99.90
64843;DHT22;51310;52.198;5.422;2023-02-19T04:50:09;8.30;99.90
64843;DHT22;51310;52.198;5.422;2023-02-19T04:52:34;8.30;99.90
64843;DHT22;51310;52.198;5.422;2023-02-19T04:55:00;8.30;99.90
64843;DHT22;51310;52.198;5.422;2023-02-19T04:57:26;8.30;99.90
64843;DHT22;51310;52.198;5.422;2023-02-19T04:59:52;8.30;99.90
64843;DHT22;51310;52.198;5.422;2023-02-19T05:02:18;8.30;99.90
64843;DHT22;51310;52.198;5.422;2023-02-19T05:04:43;8.30;99.90
64843;DHT22;51310;52.198;5.422;2023-02-19T05:07:09;8.20;99.90
64843;DHT22;51310;52.198;5.422;2023-02-19T05:09:35;8.20;99.90
64843;DHT22;51310;52.198;5.422;2023-02-19T05:12:00;8.20;99.90
64843;DHT22;51310;52.198;5.422;2023-02-19T05:14:26;8.20;99.90
64843;DHT22;51310;52.198;5.422;2023-02-19T05:16:52;8.20;99.90
64843;DHT22;51310;52.198;5.422;2023-02-19T05:19:17;8.20;99.90
64843;DHT22;51310;52.198;5.422;2023-02-19T05:21:43;8.20;99.90
64843;DHT22;51310;52.198;5.422;2023-02-19T05:24:09;8.20;99.90
64843;DHT22;51310;52.198;5.422;2023-02-19T05:26:35;8.20;99.90
64843;DHT22;51310;52.198;5.422;2023-02-19T05:29:01;8.10;99.90
64843;DHT22;51310;52.198;5.422;2023-02-19T05:31:27;8.10;99.90
64843;DHT22;51310;52.198;5.422;2023-02-19T05:33:56;8.10;99.90
64843;DHT22;51310;52.198;5.422;2023-02-19T05:36:22;8.20;99.90
64843;DHT22;51310;52.198;5.422;2023-02-19T05:38:55;8.10;99.90
64843;DHT22;51310;52.198;5.422;2023-02-19T05:41:27;8.10;99.90
64843;DHT22;51310;52.198;5.422;2023-02-19T05:43:55;8.10;99.90
64843;DHT22;51310;52.198;5.422;2023-02-19T05:46:24;8.10;99.90
64843;DHT22;51310;52.198;5.422;2023-02-19T05:48:52;8.10;99.90
64843;DHT22;51310;52.198;5.422;2023-02-19T05:51:21;8.10;99.90
64843;DHT22;51310;52.198;5.422;2023-02-19T05:53:49;8.00;99.90
64843;DHT22;51310;52.198;5.422;2023-02-19T05:56:23;8.10;99.90
64843;DHT22;51310;52.198;5.422;2023-02-19T05:59:13;8.00;99.90
64843;DHT22;51310;52.198;5.422;2023-02-19T06:01:39;8.00;99.90
64843;DHT22;51310;52.198;5.422;2023-02-19T06:04:05;8.00;99.90
64843;DHT22;51310;52.198;5.422;2023-02-19T06:06:30;8.00;99.90
64843;DHT22;51310;52.198;5.422;2023-02-19T06:08:56;8.00;99.90
64843;DHT22;51310;52.198;5.422;2023-02-19T06:11:23;8.00;99.90
64843;DHT22;51310;52.198;5.422;2023-02-19T06:13:49;8.10;99.90
64843;DHT22;51310;52.198;5.422;2023-02-19T06:16:16;8.00;99.90
64843;DHT22;51310;52.198;5.422;2023-02-19T06:18:43;8.10;99.90
64843;DHT22;51310;52.198;5.422;2023-02-19T06:21:10;8.00;99.90
64843;DHT22;51310;52.198;5.422;2023-02-19T06:23:37;8.00;99.90
64843;DHT22;51310;52.198;5.422;2023-02-19T06:26:08;8.00;99.90
64843;DHT22;51310;52.198;5.422;2023-02-19T06:28:44;8.00;99.90
64843;DHT22;51310;52.198;5.422;2023-02-19T06:31:11;8.00;99.90
64843;DHT22;51310;52.198;5.422;2023-02-19T06:33:38;8.00;99.90
64843;DHT22;51310;52.198;5.422;2023-02-19T06:36:07;8.00;99.90
64843;DHT22;51310;52.198;5.422;2023-02-19T06:38:36;8.00;99.90
64843;DHT22;51310;52.198;5.422;2023-02-19T06:41:04;8.00;99.90
64843;DHT22;51310;52.198;5.422;2023-02-19T06:43:31;8.00;99.90
64843;DHT22;51310;52.198;5.422;2023-02-19T06:45:58;8.00;99.90
64843;DHT22;51310;52.198;5.422;2023-02-19T06:48:29;8.00;99.90
64843;DHT22;51310;52.198;5.422;2023-02-19T06:50:56;8.00;99.90
64843;DHT22;51310;52.198;5.422;2023-02-19T06:53:22;8.00;99.90
64843;DHT22;51310;52.198;5.422;2023-02-19T06:56:05;8.00;99.90
64843;DHT22;51310;52.198;5.422;2023-02-19T06:58:32;8.00;99.90
64843;DHT22;51310;52.198;5.422;2023-02-19T07:00:59;8.00;99.90
64843;DHT22;51310;52.198;5.422;2023-02-19T07:03:25;8.00;99.90
64843;DHT22;51310;52.198;5.422;2023-02-19T07:05:51;8.00;99.90
64843;DHT22;51310;52.198;5.422;2023-02-19T07:08:17;7.90;99.90
64843;DHT22;51310;52.198;5.422;2023-02-19T07:10:43;8.00;99.90
64843;DHT22;51310;52.198;5.422;2023-02-19T07:13:10;8.00;99.90
64843;DHT22;51310;52.198;5.422;2023-02-19T07:15:35;8.00;99.90
64843;DHT22;51310;52.198;5.422;2023-02-19T07:18:01;8.00;99.90
64843;DHT22;51310;52.198;5.422;2023-02-19T07:20:29;8.00;99.90
64843;DHT22;51310;52.198;5.422;2023-02-19T07:22:56;8.00;99.90
64843;DHT22;51310;52.198;5.422;2023-02-19T07:25:21;8.00;99.90
64843;DHT22;51310;52.198;5.422;2023-02-19T07:27:47;8.00;99.90
64843;DHT22;51310;52.198;5.422;2023-02-19T07:30:13;8.00;99.90
64843;DHT22;51310;52.198;5.422;2023-02-19T07:32:42;8.00;99.90
64843;DHT22;51310;52.198;5.422;2023-02-19T07:35:10;8.00;99.90
64843;DHT22;51310;52.198;5.422;2023-02-19T07:37:35;8.00;99.90
64843;DHT22;51310;52.198;5.422;2023-02-19T07:40:01;8.00;99.90
64843;DHT22;51310;52.198;5.422;2023-02-19T07:42:27;8.00;99.90
64843;DHT22;51310;52.198;5.422;2023-02-19T07:44:53;8.00;99.90
64843;DHT22;51310;52.198;5.422;2023-02-19T07:47:18;8.00;99.90
64843;DHT22;51310;52.198;5.422;2023-02-19T07:49:44;8.10;99.90
64843;DHT22;51310;52.198;5.422;2023-02-19T07:52:10;8.00;99.90
64843;DHT22;51310;52.198;5.422;2023-02-19T07:54:35;8.10;99.90
64843;DHT22;51310;52.198;5.422;2023-02-19T07:57:01;8.00;99.90
64843;DHT22;51310;52.198;5.422;2023-02-19T07:59:27;8.00;99.90
64843;DHT22;51310;52.198;5.422;2023-02-19T08:01:52;8.00;99.90
64843;DHT22;51310;52.198;5.422;2023-02-19T08:04:37;8.00;99.90
64843;DHT22;51310;52.198;5.422;2023-02-19T08:07:03;8.00;99.90
64843;DHT22;51310;52.198;5.422;2023-02-19T08:09:30;8.00;99.90
64843;DHT22;51310;52.198;5.422;2023-02-19T08:11:56;8.00;99.90
64843;DHT22;51310;52.198;5.422;2023-02-19T08:14:40;8.00;99.90
64843;DHT22;51310;52.198;5.422;2023-02-19T08:17:05;8.00;99.90
64843;DHT22;51310;52.198;5.422;2023-02-19T08:19:31;8.00;99.90
64843;DHT22;51310;52.198;5.422;2023-02-19T08:21:57;8.00;99.90
64843;DHT22;51310;52.198;5.422;2023-02-19T08:24:22;8.00;99.90
64843;DHT22;51310;52.198;5.422;2023-02-19T08:26:48;8.00;99.90
64843;DHT22;51310;52.198;5.422;2023-02-19T08:29:14;8.00;99.90
64843;DHT22;51310;52.198;5.422;2023-02-19T08:31:40;8.00;99.90
64843;DHT22;51310;52.198;5.422;2023-02-19T08:34:05;8.00;99.90
64843;DHT22;51310;52.198;5.422;2023-02-19T08:36:31;8.00;99.90
64843;DHT22;51310;52.198;5.422;2023-02-19T08:38:57;8.00;99.90
64843;DHT22;51310;52.198;5.422;2023-02-19T08:41:22;8.00;99.90
64843;DHT22;51310;52.198;5.422;2023-02-19T08:43:48;8.00;99.90
64843;DHT22;51310;52.198;5.422;2023-02-19T08:46:14;8.10;99.90
64843;DHT22;51310;52.198;5.422;2023-02-19T08:48:40;8.10;99.90
64843;DHT22;51310;52.198;5.422;2023-02-19T08:51:08;8.10;99.90
64843;DHT22;51310;52.198;5.422;2023-02-19T08:53:36;8.10;99.90
64843;DHT22;51310;52.198;5.422;2023-02-19T08:56:11;8.10;99.90
64843;DHT22;51310;52.198;5.422;2023-02-19T08:58:39;8.10;99.90
64843;DHT22;51310;52.198;5.422;2023-02-19T09:01:14;8.10;99.90
64843;DHT22;51310;52.198;5.422;2023-02-19T09:03:45;8.10;99.90
64843;DHT22;51310;52.198;5.422;2023-02-19T09:06:17;8.10;99.90
64843;DHT22;51310;52.198;5.422;2023-02-19T09:08:44;8.20;99.90
64843;DHT22;51310;52.198;5.422;2023-02-19T09:11:11;8.20;99.90
64843;DHT22;51310;52.198;5.422;2023-02-19T09:13:36;8.20;99.90
64843;DHT22;51310;52.198;5.422;2023-02-19T09:16:03;8.20;99.90
64843;DHT22;51310;52.198;5.422;2023-02-19T09:18:30;8.20;99.90
64843;DHT22;51310;52.198;5.422;2023-02-19T09:20:59;8.20;99.90
64843;DHT22;51310;52.198;5.422;2023-02-19T09:23:31;8.20;99.90
64843;DHT22;51310;52.198;5.422;2023-02-19T09:25:59;8.20;99.90
64843;DHT22;51310;52.198;5.422;2023-02-19T09:28:26;8.20;99.90
64843;DHT22;51310;52.198;5.422;2023-02-19T09:30:52;8.20;99.90
64843;DHT22;51310;52.198;5.422;2023-02-19T09:33:18;8.10;99.90
64843;DHT22;51310;52.198;5.422;2023-02-19T09:35:44;8.00;99.90
64843;DHT22;51310;52.198;5.422;2023-02-19T09:38:09;7.80;99.90
64843;DHT22;51310;52.198;5.422;2023-02-19T09:40:36;7.70;99.90
64843;DHT22;51310;52.198;5.422;2023-02-19T09:43:15;7.60;99.90
64843;DHT22;51310;52.198;5.422;2023-02-19T09:45:46;7.50;99.90
64843;DHT22;51310;52.198;5.422;2023-02-19T09:48:12;7.40;99.90
64843;DHT22;51310;52.198;5.422;2023-02-19T09:50:44;7.30;99.90
64843;DHT22;51310;52.198;5.422;2023-02-19T09:53:26;7.20;99.90
64843;DHT22;51310;52.198;5.422;2023-02-19T09:56:00;7.20;99.90
64843;DHT22;51310;52.198;5.422;2023-02-19T09:58:32;7.10;99.90
64843;DHT22;51310;52.198;5.422;2023-02-19T10:01:02;7.00;99.90
64843;DHT22;51310;52.198;5.422;2023-02-19T10:03:32;7.00;99.90
64843;DHT22;51310;52.198;5.422;2023-02-19T10:06:04;7.00;99.90
64843;DHT22;51310;52.198;5.422;2023-02-19T10:08:34;7.10;99.90
64843;DHT22;51310;52.198;5.422;2023-02-19T10:11:03;7.10;99.90
64843;DHT22;51310;52.198;5.422;2023-02-19T10:13:34;7.10;99.90
64843;DHT22;51310;52.198;5.422;2023-02-19T10:16:08;7.10;99.90
64843;DHT22;51310;52.198;5.422;2023-02-19T10:18:42;7.10;99.90
64843;DHT22;51310;52.198;5.422;2023-02-19T10:21:13;7.20;99.90
64843;DHT22;51310;52.198;5.422;2023-02-19T10:23:44;7.20;99.90
64843;DHT22;51310;52.198;5.422;2023-02-19T10:26:13;7.20;99.90
64843;DHT22;51310;52.198;5.422;2023-02-19T10:28:39;7.20;99.90
64843;DHT22;51310;52.198;5.422;2023-02-19T10:31:15;7.30;99.90
64843;DHT22;51310;52.198;5.422;2023-02-19T10:33:53;7.40;99.90
64843;DHT22;51310;52.198;5.422;2023-02-19T10:38:59;7.40;99.90
64843;DHT22;51310;52.198;5.422;2023-02-19T10:41:28;7.40;99.90
64843;DHT22;51310;52.198;5.422;2023-02-19T10:44:08;7.40;99.90
64843;DHT22;51310;52.198;5.422;2023-02-19T10:46:46;7.30;99.90
64843;DHT22;51310;52.198;5.422;2023-02-19T10:51:56;7.20;99.90
64843;DHT22;51310;52.198;5.422;2023-02-19T10:54:29;7.30;99.90
64843;DHT22;51310;52.198;5.422;2023-02-19T10:59:58;7.40;99.90
64843;DHT22;51310;52.198;5.422;2023-02-19T11:02:27;7.30;99.90
64843;DHT22;51310;52.198;5.422;2023-02-19T11:07:45;7.20;99.90
64843;DHT22;51310;52.198;5.422;2023-02-19T11:12:56;7.20;99.90
64843;DHT22;51310;52.198;5.422;2023-02-19T11:15:32;7.20;99.90
64843;DHT22;51310;52.198;5.422;2023-02-19T11:23:30;7.20;99.90
64843;DHT22;51310;52.198;5.422;2023-02-19T11:26:04;7.20;99.90
64843;DHT22;51310;52.198;5.422;2023-02-19T11:28:41;7.20;99.90
64843;DHT22;51310;52.198;5.422;2023-02-19T11:36:38;7.10;99.90
64843;DHT22;51310;52.198;5.422;2023-02-19T11:39:26;7.00;99.90
64843;DHT22;51310;52.198;5.422;2023-02-19T11:42:26;6.90;99.90
64843;DHT22;51310;52.198;5.422;2023-02-19T11:45:27;6.80;99.90
64843;DHT22;51310;52.198;5.422;2023-02-19T11:48:10;6.70;99.90
64843;DHT22;51310;52.198;5.422;2023-02-19T11:54:10;6.40;99.90
64843;DHT22;51310;52.198;5.422;2023-02-19T12:03:20;6.20;99.90
64843;DHT22;51310;52.198;5.422;2023-02-19T12:06:18;6.20;99.90
64843;DHT22;51310;52.198;5.422;2023-02-19T12:15:12;6.20;99.90
64843;DHT22;51310;52.198;5.422;2023-02-19T12:31:48;6.20;99.90
64843;DHT22;51310;52.198;5.422;2023-02-19T12:34:47;6.10;99.90
64843;DHT22;51310;52.198;5.422;2023-02-19T12:37:40;6.10;99.90
64843;DHT22;51310;52.198;5.422;2023-02-19T12:46:00;6.10;99.90
64843;DHT22;51310;52.198;5.422;2023-02-19T12:48:34;6.10;99.90
64843;DHT22;51310;52.198;5.422;2023-02-19T12:51:16;6.10;99.90
64843;DHT22;51310;52.198;5.422;2023-02-19T12:54:03;6.10;99.90
64843;DHT22;51310;52.198;5.422;2023-02-19T12:56:42;6.10;99.90
64843;DHT22;51310;52.198;5.422;2023-02-19T13:00:19;6.20;99.90
64843;DHT22;51310;52.198;5.422;2023-02-19T13:02:44;6.20;99.90
64843;DHT22;51310;52.198;5.422;2023-02-19T13:11:05;6.20;99.90
64843;DHT22;51310;52.198;5.422;2023-02-19T13:14:03;6.30;99.90
64843;DHT22;51310;52.198;5.422;2023-02-19T13:16:39;6.40;99.90
64843;DHT22;51310;52.198;5.422;2023-02-19T13:19:09;6.50;99.90
64843;DHT22;51310;52.198;5.422;2023-02-19T13:21:40;6.60;99.90
64843;DHT22;51310;52.198;5.422;2023-02-19T13:24:35;6.70;99.90
64843;DHT22;51310;52.198;5.422;2023-02-19T13:38:19;6.80;99.90
64843;DHT22;51310;52.198;5.422;2023-02-19T13:40:58;6.80;99.90
64843;DHT22;51310;52.198;5.422;2023-02-19T13:43:30;6.80;99.90
64843;DHT22;51310;52.198;5.422;2023-02-19T13:46:02;6.90;99.90
64843;DHT22;51310;52.198;5.422;2023-02-19T13:48:35;7.00;99.90
64843;DHT22;51310;52.198;5.422;2023-02-19T14:04:59;7.40;99.90
64843;DHT22;51310;52.198;5.422;2023-02-19T14:10:01;7.40;99.90
64843;DHT22;51310;52.198;5.422;2023-02-19T14:12:33;7.50;99.90
64843;DHT22;51310;52.198;5.422;2023-02-19T14:21:33;7.40;99.90
64843;DHT22;51310;52.198;5.422;2023-02-19T14:24:00;7.40;99.90
64843;DHT22;51310;52.198;5.422;2023-02-19T14:26:30;7.40;99.90
64843;DHT22;51310;52.198;5.422;2023-02-19T14:28:59;7.40;99.90
64843;DHT22;51310;52.198;5.422;2023-02-19T14:31:31;7.40;99.90
64843;DHT22;51310;52.198;5.422;2023-02-19T14:37:08;7.50;99.90
64843;DHT22;51310;52.198;5.422;2023-02-19T14:39:39;7.50;99.90
64843;DHT22;51310;52.198;5.422;2023-02-19T14:42:16;7.50;99.90
64843;DHT22;51310;52.198;5.422;2023-02-19T14:44:54;7.50;99.90
64843;DHT22;51310;52.198;5.422;2023-02-19T14:47:25;7.50;99.90
64843;DHT22;51310;52.198;5.422;2023-02-19T14:50:30;7.50;99.90
64843;DHT22;51310;52.198;5.422;2023-02-19T14:53:02;7.60;99.90
64843;DHT22;51310;52.198;5.422;2023-02-19T14:55:36;7.50;99.90
64843;DHT22;51310;52.198;5.422;2023-02-19T14:58:07;7.50;99.90
64843;DHT22;51310;52.198;5.422;2023-02-19T15:00:39;7.60;99.90
64843;DHT22;51310;52.198;5.422;2023-02-19T15:03:27;7.60;99.90
64843;DHT22;51310;52.198;5.422;2023-02-19T15:05:58;7.70;99.90
64843;DHT22;51310;52.198;5.422;2023-02-19T15:08:37;7.70;99.90
64843;DHT22;51310;52.198;5.422;2023-02-19T15:11:11;7.70;99.90
64843;DHT22;51310;52.198;5.422;2023-02-19T15:13:42;7.60;99.90
64843;DHT22;51310;52.198;5.422;2023-02-19T15:16:17;7.60;99.90
64843;DHT22;51310;52.198;5.422;2023-02-19T15:18:45;7.60;99.90
64843;DHT22;51310;52.198;5.422;2023-02-19T15:21:30;7.50;99.90
64843;DHT22;51310;52.198;5.422;2023-02-19T15:24:05;7.50;99.90
64843;DHT22;51310;52.198;5.422;2023-02-19T15:26:39;7.50;99.90
64843;DHT22;51310;52.198;5.422;2023-02-19T15:29:11;7.40;99.90
64843;DHT22;51310;52.198;5.422;2023-02-19T15:31:46;7.40;99.90
64843;DHT22;51310;52.198;5.422;2023-02-19T15:34:24;7.30;99.90
64843;DHT22;51310;52.198;5.422;2023-02-19T15:36:55;7.20;99.90
64843;DHT22;51310;52.198;5.422;2023-02-19T15:39:38;7.20;99.90
64843;DHT22;51310;52.198;5.422;2023-02-19T15:42:09;7.20;99.90
64843;DHT22;51310;52.198;5.422;2023-02-19T15:44:51;7.20;99.90
64843;DHT22;51310;52.198;5.422;2023-02-19T15:47:38;7.20;99.90
64843;DHT22;51310;52.198;5.422;2023-02-19T15:50:16;7.20;99.90
64843;DHT22;51310;52.198;5.422;2023-02-19T15:52:48;7.10;99.90
64843;DHT22;51310;52.198;5.422;2023-02-19T15:58:07;7.00;99.90
64843;DHT22;51310;52.198;5.422;2023-02-19T16:01:11;7.00;99.90
64843;DHT22;51310;52.198;5.422;2023-02-19T16:03:39;7.00;99.90
64843;DHT22;51310;52.198;5.422;2023-02-19T16:06:08;7.00;99.90
64843;DHT22;51310;52.198;5.422;2023-02-19T16:08:41;7.00;99.90
64843;DHT22;51310;52.198;5.422;2023-02-19T16:11:25;7.00;99.90
64843;DHT22;51310;52.198;5.422;2023-02-19T16:16:43;6.90;99.90
64843;DHT22;51310;52.198;5.422;2023-02-19T16:19:27;6.90;99.90
64843;DHT22;51310;52.198;5.422;2023-02-19T16:21:55;6.90;99.90
64843;DHT22;51310;52.198;5.422;2023-02-19T16:24:31;6.90;99.90
64843;DHT22;51310;52.198;5.422;2023-02-19T16:27:02;6.80;99.90
64843;DHT22;51310;52.198;5.422;2023-02-19T16:29:32;6.80;99.90
64843;DHT22;51310;52.198;5.422;2023-02-19T16:32:01;6.70;99.90
64843;DHT22;51310;52.198;5.422;2023-02-19T16:37:37;6.70;99.90
64843;DHT22;51310;52.198;5.422;2023-02-19T16:42:39;6.70;99.90
64843;DHT22;51310;52.198;5.422;2023-02-19T16:45:40;6.60;99.90
64843;DHT22;51310;52.198;5.422;2023-02-19T16:48:07;6.60;99.90
64843;DHT22;51310;52.198;5.422;2023-02-19T16:50:34;6.60;99.90
64843;DHT22;51310;52.198;5.422;2023-02-19T16:53:02;6.50;99.90
64843;DHT22;51310;52.198;5.422;2023-02-19T16:55:29;6.50;99.90
64843;DHT22;51310;52.198;5.422;2023-02-19T16:57:59;6.50;99.90
64843;DHT22;51310;52.198;5.422;2023-02-19T17:00:30;6.50;99.90
64843;DHT22;51310;52.198;5.422;2023-02-19T17:03:00;6.50;99.90
64843;DHT22;51310;52.198;5.422;2023-02-19T17:05:34;6.40;99.90
64843;DHT22;51310;52.198;5.422;2023-02-19T17:08:28;6.40;99.90
64843;DHT22;51310;52.198;5.422;2023-02-19T17:11:00;6.40;99.90
64843;DHT22;51310;52.198;5.422;2023-02-19T17:13:27;6.40;99.90
64843;DHT22;51310;52.198;5.422;2023-02-19T17:15:54;6.40;99.90
64843;DHT22;51310;52.198;5.422;2023-02-19T17:18:20;6.40;99.90
64843;DHT22;51310;52.198;5.422;2023-02-19T17:20:55;6.40;99.90
64843;DHT22;51310;52.198;5.422;2023-02-19T17:23:42;6.40;99.90
64843;DHT22;51310;52.198;5.422;2023-02-19T17:26:12;6.40;99.90
64843;DHT22;51310;52.198;5.422;2023-02-19T17:28:42;6.40;99.90
64843;DHT22;51310;52.198;5.422;2023-02-19T17:31:12;6.40;99.90
64843;DHT22;51310;52.198;5.422;2023-02-19T17:33:41;6.40;99.90
64843;DHT22;51310;52.198;5.422;2023-02-19T17:36:08;6.40;99.90
64843;DHT22;51310;52.198;5.422;2023-02-19T17:38:45;6.30;99.90
64843;DHT22;51310;52.198;5.422;2023-02-19T17:41:11;6.30;99.90
64843;DHT22;51310;52.198;5.422;2023-02-19T17:43:36;6.30;99.90
64843;DHT22;51310;52.198;5.422;2023-02-19T17:46:02;6.30;99.90
64843;DHT22;51310;52.198;5.422;2023-02-19T17:48:28;6.30;99.90
64843;DHT22;51310;52.198;5.422;2023-02-19T17:50:54;6.30;99.90
64843;DHT22;51310;52.198;5.422;2023-02-19T17:53:20;6.30;99.90
64843;DHT22;51310;52.198;5.422;2023-02-19T17:55:46;6.40;99.90
64843;DHT22;51310;52.198;5.422;2023-02-19T17:58:12;6.30;99.90
64843;DHT22;51310;52.198;5.422;2023-02-19T18:00:38;6.40;99.90
64843;DHT22;51310;52.198;5.422;2023-02-19T18:03:04;6.30;99.90
64843;DHT22;51310;52.198;5.422;2023-02-19T18:05:34;6.30;99.90
64843;DHT22;51310;52.198;5.422;2023-02-19T18:08:00;6.30;99.90
64843;DHT22;51310;52.198;5.422;2023-02-19T18:10:26;6.30;99.90
64843;DHT22;51310;52.198;5.422;2023-02-19T18:12:52;6.30;99.90
64843;DHT22;51310;52.198;5.422;2023-02-19T18:15:23;6.30;99.90
64843;DHT22;51310;52.198;5.422;2023-02-19T18:17:52;6.30;99.90
64843;DHT22;51310;52.198;5.422;2023-02-19T18:20:21;6.30;99.90
64843;DHT22;51310;52.198;5.422;2023-02-19T18:22:48;6.20;99.90
64843;DHT22;51310;52.198;5.422;2023-02-19T18:25:16;6.20;99.90
64843;DHT22;51310;52.198;5.422;2023-02-19T18:27:42;6.20;99.90
64843;DHT22;51310;52.198;5.422;2023-02-19T18:30:09;6.10;99.90
64843;DHT22;51310;52.198;5.422;2023-02-19T18:32:36;6.10;99.90
64843;DHT22;51310;52.198;5.422;2023-02-19T18:35:02;6.10;99.90
64843;DHT22;51310;52.198;5.422;2023-02-19T18:37:29;6.10;99.90
64843;DHT22;51310;52.198;5.422;2023-02-19T18:39:57;6.00;99.90
64843;DHT22;51310;52.198;5.422;2023-02-19T18:42:24;6.10;99.90
64843;DHT22;51310;52.198;5.422;2023-02-19T18:44:50;6.00;99.90
64843;DHT22;51310;52.198;5.422;2023-02-19T18:47:17;6.00;99.90